Terminal Aerodrome Forecast
Issued by NWS Knoxville/Tri Cities, TN

Home | Current Version | Previous Version | Text Only | Print | Product List | Glossary On
Versions: 1 2 3 4 5 6 7 8 9 10 11 12 13 14 15 16 17 18 19 20 21 22 23 24 25 26 27 28 29 30 31 32 33 34 35
000
FTUS44 KMRX 281729
TAFCHA
TAF
KCHA 281729Z 2818/2918 18010G18KT P6SM BKN035
     FM290100 16004KT P6SM SCT035
     FM291000 VRB03KT 5SM BR SCT020
     FM291400 17011KT P6SM SCT035=

USA.gov is the U.S. government's official web portal to all federal, state and local government web resources and services.